createdAt,value
2019-04-06T00:01:34.434Z,7.94
2019-04-06T00:04:01.605Z,7.95
2019-04-06T00:06:28.689Z,7.97
2019-04-06T00:08:55.964Z,7.98
2019-04-06T00:11:23.104Z,7.96
2019-04-06T00:13:50.221Z,7.95
2019-04-06T00:16:17.379Z,7.98
2019-04-06T00:18:44.611Z,7.98
2019-04-06T00:21:13.875Z,7.98
2019-04-06T00:23:40.966Z,7.98
2019-04-06T00:26:08.138Z,7.97
2019-04-06T00:28:35.220Z,7.96
2019-04-06T00:31:22.117Z,7.97
2019-04-06T00:33:49.422Z,7.96
2019-04-06T00:36:16.614Z,7.95
2019-04-06T00:38:43.766Z,7.94
2019-04-06T00:41:11.423Z,7.93
2019-04-06T00:43:38.628Z,7.93
2019-04-06T00:46:05.753Z,7.92
2019-04-06T00:48:32.957Z,7.91
2019-04-06T00:51:00.091Z,7.90
2019-04-06T00:53:27.526Z,7.90
2019-04-06T00:55:55.852Z,7.89
2019-04-06T00:58:23.488Z,7.89
2019-04-06T01:00:52.105Z,7.90
2019-04-06T01:03:19.187Z,7.88
2019-04-06T01:05:46.603Z,7.89
2019-04-06T01:08:13.862Z,7.89
2019-04-06T01:10:40.956Z,7.88
2019-04-06T01:13:08.036Z,7.89
2019-04-06T01:15:35.188Z,7.87
2019-04-06T01:18:02.362Z,7.86
2019-04-06T01:20:29.470Z,7.85
2019-04-06T01:22:57.466Z,7.85
2019-04-06T01:25:24.634Z,7.85
2019-04-06T01:27:51.718Z,7.84
2019-04-06T01:30:18.847Z,7.83
2019-04-06T01:32:46.111Z,7.83
2019-04-06T01:35:13.196Z,7.84
2019-04-06T01:37:40.466Z,7.84
2019-04-06T01:40:07.869Z,7.84
2019-04-06T01:42:35.246Z,7.86
2019-04-06T01:45:02.484Z,7.84
2019-04-06T01:47:29.568Z,7.84
2019-04-06T01:49:56.654Z,7.84
2019-04-06T01:52:23.773Z,7.85
2019-04-06T01:54:50.878Z,7.84
2019-04-06T01:57:18.089Z,7.84
2019-04-06T01:59:45.219Z,7.83
2019-04-06T02:02:19.297Z,7.84
2019-04-06T02:04:47.633Z,7.83
2019-04-06T02:07:14.835Z,7.84
2019-04-06T02:09:41.986Z,7.82
2019-04-06T02:12:09.077Z,7.83
2019-04-06T02:14:36.277Z,7.84
2019-04-06T02:17:03.398Z,7.84
2019-04-06T02:20:11.677Z,7.83
2019-04-06T02:22:38.828Z,7.84
2019-04-06T02:25:06.630Z,7.84
2019-04-06T02:27:33.998Z,7.85
2019-04-06T02:30:21.317Z,7.86
2019-04-06T02:33:20.170Z,7.86
2019-04-06T02:36:06.839Z,7.85
2019-04-06T02:38:52.560Z,7.86
2019-04-06T02:41:39.270Z,7.86
2019-04-06T02:44:06.381Z,7.87
2019-04-06T02:46:33.560Z,7.87
2019-04-06T02:49:00.660Z,7.87
2019-04-06T02:51:27.734Z,7.89
2019-04-06T02:53:54.818Z,7.89
2019-04-06T02:56:59.106Z,7.89
2019-04-06T02:59:26.272Z,7.89
2019-04-06T03:01:53.377Z,7.88
2019-04-06T03:04:20.504Z,7.90
2019-04-06T03:06:47.582Z,7.89
2019-04-06T03:09:14.665Z,7.88
2019-04-06T03:11:41.787Z,7.88
2019-04-06T03:14:08.840Z,7.89
2019-04-06T03:16:37.728Z,7.90
2019-04-06T03:19:04.967Z,7.90
2019-04-06T03:21:32.049Z,7.90
2019-04-06T03:23:59.184Z,7.89
2019-04-06T03:26:29.730Z,7.90
2019-04-06T03:28:57.281Z,7.91
2019-04-06T03:31:27.391Z,7.90
2019-04-06T03:33:53.402Z,7.92
2019-04-06T03:36:20.765Z,7.91
2019-04-06T03:38:47.913Z,7.92
2019-04-06T03:41:15.322Z,7.91
2019-04-06T03:43:42.417Z,7.92
2019-04-06T03:46:09.517Z,7.90
2019-04-06T03:48:36.601Z,7.91
2019-04-06T03:51:09.444Z,7.91
2019-04-06T03:53:36.720Z,7.92
2019-04-06T03:56:03.903Z,7.91
2019-04-06T03:58:30.963Z,7.93
2019-04-06T04:00:58.040Z,7.93
2019-04-06T04:03:25.170Z,7.91
2019-04-06T04:05:52.217Z,7.93
2019-04-06T04:08:25.239Z,7.91
2019-04-06T04:10:52.299Z,7.91
2019-04-06T04:13:19.362Z,7.94
2019-04-06T04:15:46.785Z,7.93
2019-04-06T04:18:13.845Z,7.93
2019-04-06T04:20:40.891Z,7.95
2019-04-06T04:23:07.990Z,7.95
2019-04-06T04:25:35.041Z,7.96
2019-04-06T04:28:02.085Z,7.96
2019-04-06T04:30:32.812Z,7.96
2019-04-06T04:32:58.141Z,7.97
2019-04-06T04:35:25.197Z,7.99
2019-04-06T04:37:58.396Z,7.99
2019-04-06T04:40:26.712Z,7.98
2019-04-06T04:42:53.745Z,7.98
2019-04-06T04:45:20.828Z,7.98
2019-04-06T04:47:50.143Z,8.00
2019-04-06T04:50:16.868Z,8.00
2019-04-06T04:52:44.048Z,8.00
2019-04-06T04:55:11.206Z,8.01
2019-04-06T04:57:41.250Z,8.00
2019-04-06T05:00:07.911Z,8.01
2019-04-06T05:02:34.977Z,8.00
2019-04-06T05:05:02.203Z,8.01
2019-04-06T05:07:29.474Z,8.02
2019-04-06T05:09:56.476Z,8.03
2019-04-06T05:12:23.572Z,8.03
2019-04-06T05:14:57.734Z,8.03
2019-04-06T05:17:24.806Z,8.04
2019-04-06T05:19:51.895Z,8.03
2019-04-06T05:22:18.932Z,8.02
2019-04-06T05:24:46.002Z,8.01
2019-04-06T05:27:13.209Z,8.01
2019-04-06T05:29:40.374Z,7.99
2019-04-06T05:32:07.428Z,8.00
2019-04-06T05:34:34.690Z,8.02
2019-04-06T05:37:01.773Z,8.03
2019-04-06T05:39:30.266Z,8.06
2019-04-06T05:41:57.318Z,8.10
2019-04-06T05:44:24.362Z,8.11
2019-04-06T05:46:51.514Z,8.12
2019-04-06T05:49:19.787Z,8.15
2019-04-06T05:51:47.272Z,8.16
2019-04-06T05:54:16.164Z,8.18
2019-04-06T05:56:43.294Z,8.20
2019-04-06T05:59:10.908Z,8.22
2019-04-06T06:01:40.279Z,8.26
2019-04-06T06:04:08.851Z,8.32
2019-04-06T06:06:36.161Z,8.36
2019-04-06T06:09:05.697Z,8.41
2019-04-06T06:11:32.798Z,8.47
2019-04-06T06:13:59.845Z,8.53
2019-04-06T06:16:26.906Z,8.58
2019-04-06T06:18:54.011Z,8.66
2019-04-06T06:21:21.197Z,8.73
2019-04-06T06:23:48.295Z,8.80
2019-04-06T06:26:15.458Z,8.84
2019-04-06T06:28:42.510Z,8.90
2019-04-06T06:31:09.659Z,8.98
2019-04-06T06:33:36.758Z,9.05
2019-04-06T06:36:04.203Z,9.13
2019-04-06T06:38:31.536Z,9.22
2019-04-06T06:40:58.667Z,9.30
2019-04-06T06:43:25.725Z,9.38
2019-04-06T06:45:52.802Z,9.45
2019-04-06T06:48:19.927Z,9.52
2019-04-06T06:50:46.994Z,9.59
2019-04-06T06:53:14.163Z,9.68
2019-04-06T06:55:41.372Z,9.76
2019-04-06T06:58:08.435Z,9.85
2019-04-06T07:00:35.502Z,9.91
2019-04-06T07:03:02.593Z,9.95
2019-04-06T07:05:29.756Z,9.98
2019-04-06T07:07:56.815Z,10.01
2019-04-06T07:10:23.932Z,10.03
2019-04-06T07:12:51.006Z,10.06
2019-04-06T07:15:18.209Z,10.07
2019-04-06T07:17:45.581Z,10.07
2019-04-06T07:20:13.555Z,10.05
2019-04-06T07:22:40.662Z,10.07
2019-04-06T07:25:08.269Z,10.08
2019-04-06T07:27:35.468Z,10.14
2019-04-06T07:30:03.159Z,10.13
2019-04-06T07:32:30.316Z,10.14
2019-04-06T07:34:57.641Z,10.14
2019-04-06T07:37:24.724Z,10.18
2019-04-06T07:39:51.861Z,10.26
2019-04-06T07:42:18.914Z,10.37
2019-04-06T07:44:45.978Z,10.50
2019-04-06T07:47:13.124Z,10.61
2019-04-06T07:49:40.276Z,10.73
2019-04-06T07:52:07.370Z,10.83
2019-04-06T07:54:34.421Z,10.90
2019-04-06T07:57:01.490Z,10.96
2019-04-06T07:59:28.583Z,10.92
2019-04-06T08:01:55.768Z,10.86
2019-04-06T08:04:22.835Z,10.76
2019-04-06T08:06:50.007Z,10.72
2019-04-06T08:09:17.142Z,10.70
2019-04-06T08:11:44.217Z,10.68
2019-04-06T08:14:11.323Z,10.66
2019-04-06T08:16:38.496Z,10.67
2019-04-06T08:19:05.558Z,10.70
2019-04-06T08:21:32.641Z,10.76
2019-04-06T08:24:05.900Z,10.93
2019-04-06T08:26:33.144Z,11.04
2019-04-06T08:29:02.451Z,11.15
2019-04-06T08:31:30.986Z,11.25
2019-04-06T08:33:58.230Z,11.23
2019-04-06T08:36:25.395Z,11.23
2019-04-06T08:38:52.653Z,11.27
2019-04-06T08:41:19.726Z,11.37
2019-04-06T08:43:46.888Z,11.49
2019-04-06T08:46:14.034Z,11.65
2019-04-06T08:48:41.150Z,11.76
2019-04-06T08:51:08.296Z,11.81
2019-04-06T08:53:35.432Z,11.81
2019-04-06T08:56:02.504Z,11.81
2019-04-06T08:58:29.577Z,11.82
2019-04-06T09:00:56.905Z,11.85
2019-04-06T09:03:24.188Z,11.89
2019-04-06T09:05:51.382Z,11.94
2019-04-06T09:08:18.443Z,12.03
2019-04-06T09:10:46.041Z,12.11
2019-04-06T09:13:13.254Z,12.20
2019-04-06T09:15:40.417Z,12.27
2019-04-06T09:18:07.513Z,12.37
2019-04-06T09:20:34.608Z,12.45
2019-04-06T09:23:01.777Z,12.59
2019-04-06T09:25:29.129Z,12.70
2019-04-06T09:27:56.241Z,12.78
2019-04-06T09:30:23.305Z,12.83
2019-04-06T09:32:50.355Z,12.85
2019-04-06T09:35:35.981Z,12.97
2019-04-06T09:38:03.348Z,13.12
2019-04-06T09:40:30.479Z,13.20
2019-04-06T09:42:57.611Z,13.28
2019-04-06T09:45:43.794Z,13.44
2019-04-06T09:48:33.684Z,13.51
2019-04-06T09:51:20.453Z,13.60
2019-04-06T09:54:07.774Z,13.62
2019-04-06T09:57:03.797Z,13.76
2019-04-06T09:59:40.694Z,13.96
2019-04-06T10:02:17.403Z,14.07
2019-04-06T10:05:02.923Z,14.13
2019-04-06T10:07:55.249Z,14.23
2019-04-06T10:10:40.537Z,14.27
2019-04-06T10:13:30.395Z,14.37
2019-04-06T10:16:03.825Z,14.49
2019-04-06T10:18:53.258Z,14.47
2019-04-06T10:21:38.776Z,14.43
2019-04-06T10:24:24.149Z,14.48
2019-04-06T10:27:09.221Z,14.44
2019-04-06T10:30:05.050Z,14.64
2019-04-06T10:33:09.853Z,14.68
2019-04-06T10:35:59.252Z,14.64
2019-04-06T10:38:39.024Z,14.78
2019-04-06T10:41:18.336Z,14.83
2019-04-06T10:44:03.771Z,14.92
2019-04-06T10:46:37.418Z,15.03
2019-04-06T10:49:30.411Z,15.09
2019-04-06T10:52:15.885Z,15.04
2019-04-06T10:55:01.730Z,15.07
2019-04-06T10:57:47.876Z,15.04
2019-04-06T11:00:50.189Z,15.12
2019-04-06T11:03:31.519Z,15.21
2019-04-06T11:06:18.433Z,15.10
2019-04-06T11:08:50.390Z,15.14
2019-04-06T11:11:36.955Z,15.47
2019-04-06T11:14:22.467Z,15.46
2019-04-06T11:17:11.403Z,15.43
2019-04-06T11:19:57.108Z,15.41
2019-04-06T11:22:42.602Z,15.46
2019-04-06T11:25:21.304Z,15.75
2019-04-06T11:28:17.209Z,15.85
2019-04-06T11:31:02.969Z,15.70
2019-04-06T11:33:48.924Z,15.88
2019-04-06T11:36:29.815Z,15.82
2019-04-06T11:39:15.937Z,15.71
2019-04-06T11:42:01.384Z,15.95
2019-04-06T11:44:43.174Z,16.01
2019-04-06T11:47:22.491Z,16.03
2019-04-06T11:49:57.567Z,15.83
2019-04-06T11:52:44.353Z,15.79
2019-04-06T11:55:18.316Z,16.13
2019-04-06T11:58:04.310Z,16.26
2019-04-06T12:00:49.438Z,16.74
2019-04-06T12:03:35.136Z,16.96
2019-04-06T12:06:26.277Z,16.90
2019-04-06T12:09:11.759Z,16.74
2019-04-06T12:12:07.657Z,16.83
2019-04-06T12:14:54.304Z,17.02
2019-04-06T12:20:55.358Z,17.03
2019-04-06T12:23:42.697Z,16.84
2019-04-06T12:26:19.646Z,16.59
2019-04-06T12:29:22.901Z,16.42
2019-04-06T12:32:10.070Z,16.71
2019-04-06T12:34:54.165Z,17.35
2019-04-06T12:38:06.083Z,17.76
2019-04-06T12:40:56.363Z,18.14
2019-04-06T12:43:48.935Z,18.61
2019-04-06T12:46:41.971Z,19.03
2019-04-06T12:49:31.603Z,19.44
2019-04-06T12:52:20.916Z,19.74
2019-04-06T12:55:10.567Z,19.93
2019-04-06T12:57:46.557Z,19.61
2019-04-06T13:00:49.478Z,19.32
2019-04-06T13:03:14.318Z,19.51
2019-04-06T13:06:00.999Z,19.90
2019-04-06T13:08:45.677Z,20.27
2019-04-06T13:11:30.904Z,20.45
2019-04-06T13:15:05.617Z,20.88
2019-04-06T13:17:55.458Z,20.75
2019-04-06T13:20:45.451Z,20.30
2019-04-06T13:23:34.971Z,19.67
2019-04-06T13:26:20.869Z,19.45
2019-04-06T13:29:06.998Z,19.21
2019-04-06T13:31:43.341Z,19.23
2019-04-06T13:34:39.149Z,19.69
2019-04-06T13:37:13.700Z,20.35
2019-04-06T13:40:09.373Z,20.82
2019-04-06T13:42:54.998Z,21.06
2019-04-06T13:45:41.720Z,21.18
2019-04-06T13:48:27.358Z,21.03
2019-04-06T13:51:04.427Z,20.43
2019-04-06T13:53:57.311Z,19.97
2019-04-06T13:56:43.448Z,19.70
2019-04-06T13:59:28.407Z,19.43
2019-04-06T14:02:14.124Z,19.40
2019-04-06T14:05:13.107Z,19.76
2019-04-06T14:07:58.177Z,19.60
2019-04-06T14:10:35.342Z,19.67
2019-04-06T14:13:20.862Z,19.46
2019-04-06T14:16:05.690Z,19.36
2019-04-06T14:18:58.112Z,19.06
2019-04-06T14:21:37.718Z,18.83
2019-04-06T14:24:36.760Z,18.86
2019-04-06T14:27:23.741Z,19.09
2019-04-06T14:30:13.584Z,18.99
2019-04-06T14:32:56.752Z,18.79
2019-04-06T14:35:50.035Z,18.34
2019-04-06T14:38:39.874Z,17.95
2019-04-06T14:41:42.058Z,17.70
2019-04-06T14:44:40.781Z,17.59
2019-04-06T14:47:33.273Z,17.51
2019-04-06T14:50:19.981Z,17.53
2019-04-06T14:53:22.003Z,17.95
2019-04-06T14:56:07.257Z,18.06
2019-04-06T14:58:53.953Z,18.02
2019-04-06T15:01:51.106Z,17.83
2019-04-06T15:04:28.053Z,17.65
2019-04-06T15:07:12.344Z,17.49
2019-04-06T15:09:58.112Z,17.54
2019-04-06T15:12:34.523Z,17.35
2019-04-06T15:15:24.038Z,17.28
2019-04-06T15:18:10.739Z,17.34
2019-04-06T15:20:53.254Z,17.41
2019-04-06T15:23:36.749Z,17.44
2019-04-06T15:26:14.260Z,17.38
2019-04-06T15:29:00.412Z,17.23
2019-04-06T15:31:52.800Z,17.20
2019-04-06T15:34:43.766Z,17.13
2019-04-06T15:37:36.539Z,16.99
2019-04-06T15:40:29.960Z,16.83
2019-04-06T15:43:06.776Z,16.74
2019-04-06T15:45:44.523Z,16.69
2019-04-06T15:48:38.030Z,16.62
2019-04-06T15:51:19.791Z,16.61
2019-04-06T15:54:21.730Z,16.61
2019-04-06T15:57:20.403Z,16.57
2019-04-06T15:59:53.664Z,16.55
2019-04-06T16:02:46.814Z,16.54
2019-04-06T16:05:22.963Z,16.55
2019-04-06T16:08:18.708Z,16.53
2019-04-06T16:11:04.358Z,16.51
2019-04-06T16:13:53.958Z,16.42
2019-04-06T16:16:41.022Z,16.35
2019-04-06T16:19:23.762Z,16.27
2019-04-06T16:22:10.426Z,16.27
2019-04-06T16:24:57.091Z,16.31
2019-04-06T16:27:49.862Z,16.37
2019-04-06T16:30:35.632Z,16.38
2019-04-06T16:33:37.634Z,16.28
2019-04-06T16:36:18.945Z,16.25
2019-04-06T16:39:04.529Z,16.22
2019-04-06T16:41:56.524Z,16.21
2019-04-06T16:44:45.330Z,16.14
2019-04-06T16:47:34.803Z,16.06
2019-04-06T16:50:42.817Z,15.99
2019-04-06T16:53:29.465Z,15.95
2019-04-06T16:56:11.115Z,15.94
2019-04-06T16:58:56.393Z,15.92
2019-04-06T17:01:46.095Z,15.92
2019-04-06T17:04:34.412Z,15.86
2019-04-06T17:07:24.196Z,15.82
2019-04-06T17:10:10.841Z,15.75
2019-04-06T17:13:03.852Z,15.65
2019-04-06T17:15:40.436Z,15.53
2019-04-06T17:18:23.660Z,15.41
2019-04-06T17:21:00.052Z,15.32
2019-04-06T17:23:45.566Z,15.20
2019-04-06T17:26:31.298Z,15.05
2019-04-06T17:29:24.456Z,14.93
2019-04-06T17:32:08.656Z,14.85
2019-04-06T17:34:54.254Z,14.77
2019-04-06T17:37:54.383Z,14.71
2019-04-06T17:40:39.545Z,14.64
2019-04-06T17:43:41.578Z,14.54
2019-04-06T17:46:40.206Z,14.44
2019-04-06T17:49:39.184Z,14.28
2019-04-06T17:52:34.895Z,14.12
2019-04-06T17:55:27.694Z,14.04
2019-04-06T17:58:06.851Z,13.95
2019-04-06T18:01:06.053Z,13.89
2019-04-06T18:04:01.678Z,13.82
2019-04-06T18:06:41.038Z,13.72
2019-04-06T18:09:16.863Z,13.61
2019-04-06T18:12:03.491Z,13.50
2019-04-06T18:14:30.580Z,13.42
2019-04-06T18:16:58.286Z,13.37
2019-04-06T18:19:25.380Z,13.33
2019-04-06T18:21:52.849Z,13.26
2019-04-06T18:24:20.231Z,13.17
2019-04-06T18:26:47.608Z,13.11
2019-04-06T18:29:15.151Z,13.08
2019-04-06T18:31:48.416Z,13.09
2019-04-06T18:34:16.059Z,13.07
2019-04-06T18:36:53.449Z,13.03
2019-04-06T18:39:21.274Z,12.99
2019-04-06T18:41:48.828Z,12.94
2019-04-06T18:44:16.531Z,12.86
2019-04-06T18:46:43.827Z,12.79
2019-04-06T18:49:10.966Z,12.76
2019-04-06T18:51:38.006Z,12.79
2019-04-06T18:54:05.303Z,12.78
2019-04-06T18:56:32.493Z,12.73
2019-04-06T18:58:59.615Z,12.62
2019-04-06T19:01:26.810Z,12.56
2019-04-06T19:03:53.943Z,12.52
2019-04-06T19:06:22.841Z,12.41
2019-04-06T19:08:50.245Z,12.23
2019-04-06T19:11:17.444Z,12.05
2019-04-06T19:13:44.689Z,11.98
2019-04-06T19:16:11.762Z,11.93
2019-04-06T19:18:38.929Z,11.75
2019-04-06T19:21:06.020Z,11.59
2019-04-06T19:23:33.399Z,11.46
2019-04-06T19:26:01.821Z,11.34
2019-04-06T19:28:29.092Z,11.21
2019-04-06T19:30:57.638Z,11.16
2019-04-06T19:33:26.538Z,11.12
2019-04-06T19:35:53.829Z,11.15
2019-04-06T19:38:20.919Z,11.18
2019-04-06T19:40:48.527Z,11.18
2019-04-06T19:43:17.723Z,11.15
2019-04-06T19:45:44.925Z,11.14
2019-04-06T19:48:12.469Z,11.15
2019-04-06T19:50:39.543Z,11.19
2019-04-06T19:53:06.784Z,11.21
2019-04-06T19:55:35.726Z,11.21
2019-04-06T19:58:02.798Z,11.26
2019-04-06T20:00:30.118Z,11.30
2019-04-06T20:02:57.833Z,11.33
2019-04-06T20:05:25.230Z,11.40
2019-04-06T20:07:52.481Z,11.44
2019-04-06T20:10:19.512Z,11.43
2019-04-06T20:12:47.044Z,11.41
2019-04-06T20:15:14.712Z,11.38
2019-04-06T20:17:41.792Z,11.37
2019-04-06T20:20:09.072Z,11.35
2019-04-06T20:22:36.511Z,11.32
2019-04-06T20:25:05.162Z,11.36
2019-04-06T20:27:32.437Z,11.38
2019-04-06T20:29:59.957Z,11.41
2019-04-06T20:32:27.252Z,11.41
2019-04-06T20:34:54.939Z,11.39
2019-04-06T20:37:22.070Z,11.37
2019-04-06T20:39:50.427Z,11.33
2019-04-06T20:44:49.222Z,11.44
2019-04-06T20:47:16.833Z,11.56
2019-04-06T20:49:43.927Z,11.60
2019-04-06T20:52:11.055Z,11.54
2019-04-06T20:54:38.462Z,11.54
2019-04-06T20:57:05.491Z,11.49
2019-04-06T20:59:37.553Z,11.40
2019-04-06T21:02:04.718Z,11.35
2019-04-06T21:04:31.878Z,11.28
2019-04-06T21:06:59.213Z,11.20
2019-04-06T21:09:26.778Z,11.13
2019-04-06T21:11:54.634Z,11.08
2019-04-06T21:14:29.997Z,11.01
2019-04-06T21:16:57.542Z,10.95
2019-04-06T21:19:24.855Z,10.88
2019-04-06T21:21:52.145Z,10.87
2019-04-06T21:24:19.367Z,10.82
2019-04-06T21:26:46.855Z,10.74
2019-04-06T21:29:14.186Z,10.67
2019-04-06T21:31:41.947Z,10.63
2019-04-06T21:34:12.100Z,10.60
2019-04-06T21:36:38.192Z,10.54
2019-04-06T21:39:48.454Z,10.49
2019-04-06T21:42:16.230Z,10.43
2019-04-06T21:44:43.570Z,10.38
2019-04-06T21:47:11.002Z,10.32
2019-04-06T21:49:38.975Z,10.24
2019-04-06T21:52:07.583Z,10.16
2019-04-06T21:54:34.775Z,10.08
2019-04-06T21:57:01.894Z,10.01
2019-04-06T21:59:30.092Z,9.94
2019-04-06T22:01:57.199Z,9.87
2019-04-06T22:04:26.669Z,9.81
2019-04-06T22:06:53.997Z,9.71
2019-04-06T22:09:21.968Z,9.65
2019-04-06T22:11:49.198Z,9.54
2019-04-06T22:14:17.021Z,9.44
2019-04-06T22:16:44.648Z,9.36
2019-04-06T22:19:12.070Z,9.30
2019-04-06T22:21:47.247Z,9.24
2019-04-06T22:24:15.047Z,9.16
2019-04-06T22:26:42.766Z,9.10
2019-04-06T22:29:09.918Z,9.06
2019-04-06T22:31:37.137Z,8.98
2019-04-06T22:34:04.180Z,8.99
2019-04-06T22:36:31.247Z,8.94
2019-04-06T22:38:58.364Z,8.88
2019-04-06T22:41:25.433Z,8.81
2019-04-06T22:43:52.652Z,8.76
2019-04-06T22:46:20.242Z,8.75
2019-04-06T22:48:47.477Z,8.72
2019-04-06T22:51:14.881Z,8.70
2019-04-06T22:53:42.166Z,8.72
2019-04-06T22:56:09.247Z,8.96
2019-04-06T22:58:36.867Z,9.10
2019-04-06T23:01:09.512Z,9.19
2019-04-06T23:04:08.740Z,9.23
2019-04-06T23:06:40.359Z,9.14
2019-04-06T23:09:07.912Z,9.11
2019-04-06T23:11:35.525Z,9.18
2019-04-06T23:14:03.081Z,9.22
2019-04-06T23:16:31.434Z,9.24
2019-04-06T23:18:58.787Z,9.24
2019-04-06T23:21:25.999Z,9.21
2019-04-06T23:23:53.079Z,9.23
2019-04-06T23:26:20.199Z,9.29
2019-04-06T23:28:47.367Z,9.36
2019-04-06T23:31:14.843Z,9.36
2019-04-06T23:33:42.423Z,9.28
2019-04-06T23:36:10.009Z,9.19
2019-04-06T23:38:37.813Z,9.20
2019-04-06T23:41:05.745Z,9.16
2019-04-06T23:43:33.061Z,9.09
2019-04-06T23:46:00.740Z,9.10
2019-04-06T23:48:28.011Z,9.13
2019-04-06T23:50:55.159Z,9.14
2019-04-06T23:53:22.274Z,9.06
2019-04-06T23:55:49.359Z,8.92
2019-04-06T23:58:16.457Z,8.82
